KMZZ/MZZ METAR and TAF weather

Enter ICAO airport designator
Station Type Date Time Source
KMZZ METAR 2018/12/17 02:15 UTC NOAA

KMZZ 170215Z AUTO 00000KT 10SM CLR 02/01 A3011 RMK AO2 T00180008


Station Type Date Time Source
KMZZ Decoded METAR 2018/12/17 02:15 UTC NOAA

Station name not available
Dec 16, 2018 - 09:15 PM EST / 2018.12.17 0215 UTC
Wind: Calm:0
Visibility: 10 mile(s):0
Sky conditions: clear
Temperature: 35.2 F (1.8 C)
Dew Point: 33.4 F (0.8 C)
Relative Humidity: 93%
Pressure (altimeter): 30.11 in. Hg (1019 hPa)
ob: KMZZ 170215Z AUTO 00000KT 10SM CLR 02/01 A3011 RMK AO2 T00180008
cycle: 2

Station Type Date Time Source
KMZZ TAF UTC NOAA

Error!


Example: see airport list